sensor_id;sensor_type;location;lat;lon;timestamp;temperature;humidity
11385;DHT22;5747;56.748;13.882;2023-09-30T00:02:36;10.70;99.90
11385;DHT22;5747;56.748;13.882;2023-09-30T00:05:05;10.70;99.90
11385;DHT22;5747;56.748;13.882;2023-09-30T00:07:33;10.50;99.90
11385;DHT22;5747;56.748;13.882;2023-09-30T00:10:02;10.40;99.90
11385;DHT22;5747;56.748;13.882;2023-09-30T00:12:32;10.40;99.90
11385;DHT22;5747;56.748;13.882;2023-09-30T00:15:00;10.30;99.90
11385;DHT22;5747;56.748;13.882;2023-09-30T00:17:28;10.30;99.90
11385;DHT22;5747;56.748;13.882;2023-09-30T00:19:56;10.20;99.90
11385;DHT22;5747;56.748;13.882;2023-09-30T00:22:26;10.30;99.90
11385;DHT22;5747;56.748;13.882;2023-09-30T00:24:54;10.40;99.90
11385;DHT22;5747;56.748;13.882;2023-09-30T00:27:22;10.50;99.90
11385;DHT22;5747;56.748;13.882;2023-09-30T00:29:51;10.60;99.90
11385;DHT22;5747;56.748;13.882;2023-09-30T00:32:19;10.60;99.90
11385;DHT22;5747;56.748;13.882;2023-09-30T00:34:48;10.80;99.90
11385;DHT22;5747;56.748;13.882;2023-09-30T00:37:16;10.70;99.90
11385;DHT22;5747;56.748;13.882;2023-09-30T00:39:44;10.70;99.90
11385;DHT22;5747;56.748;13.882;2023-09-30T00:42:12;10.70;99.90
11385;DHT22;5747;56.748;13.882;2023-09-30T00:44:40;10.70;99.90
11385;DHT22;5747;56.748;13.882;2023-09-30T00:47:10;10.70;99.90
11385;DHT22;5747;56.748;13.882;2023-09-30T00:49:38;10.70;99.90
11385;DHT22;5747;56.748;13.882;2023-09-30T00:52:06;10.80;99.90
11385;DHT22;5747;56.748;13.882;2023-09-30T00:54:35;10.90;99.90
11385;DHT22;5747;56.748;13.882;2023-09-30T00:57:04;11.00;99.90
11385;DHT22;5747;56.748;13.882;2023-09-30T00:59:33;11.00;99.90
11385;DHT22;5747;56.748;13.882;2023-09-30T01:02:01;10.90;99.90
11385;DHT22;5747;56.748;13.882;2023-09-30T01:04:34;10.90;99.90
11385;DHT22;5747;56.748;13.882;2023-09-30T01:07:03;10.80;99.90
11385;DHT22;5747;56.748;13.882;2023-09-30T01:09:32;10.70;99.90
11385;DHT22;5747;56.748;13.882;2023-09-30T01:12:01;10.60;99.90
11385;DHT22;5747;56.748;13.882;2023-09-30T01:14:31;10.70;99.90
11385;DHT22;5747;56.748;13.882;2023-09-30T01:17:01;10.70;99.90
11385;DHT22;5747;56.748;13.882;2023-09-30T01:19:30;10.90;99.90
11385;DHT22;5747;56.748;13.882;2023-09-30T01:22:00;10.90;99.90
11385;DHT22;5747;56.748;13.882;2023-09-30T01:24:38;10.90;99.90
11385;DHT22;5747;56.748;13.882;2023-09-30T01:27:07;10.80;99.90
11385;DHT22;5747;56.748;13.882;2023-09-30T01:29:35;10.80;99.90
11385;DHT22;5747;56.748;13.882;2023-09-30T01:32:05;10.80;99.90
11385;DHT22;5747;56.748;13.882;2023-09-30T01:34:36;10.70;99.90
11385;DHT22;5747;56.748;13.882;2023-09-30T01:37:06;10.70;99.90
11385;DHT22;5747;56.748;13.882;2023-09-30T01:39:35;10.80;99.90
11385;DHT22;5747;56.748;13.882;2023-09-30T01:42:03;10.90;99.90
11385;DHT22;5747;56.748;13.882;2023-09-30T01:44:32;11.00;99.90
11385;DHT22;5747;56.748;13.882;2023-09-30T01:47:01;11.00;99.90
11385;DHT22;5747;56.748;13.882;2023-09-30T01:49:29;11.10;99.90
11385;DHT22;5747;56.748;13.882;2023-09-30T01:51:57;11.10;99.90
11385;DHT22;5747;56.748;13.882;2023-09-30T01:54:27;11.20;99.90
11385;DHT22;5747;56.748;13.882;2023-09-30T01:56:55;11.20;99.90
11385;DHT22;5747;56.748;13.882;2023-09-30T01:59:24;11.30;99.90
11385;DHT22;5747;56.748;13.882;2023-09-30T02:01:52;11.30;99.90
11385;DHT22;5747;56.748;13.882;2023-09-30T02:04:20;11.10;99.90
11385;DHT22;5747;56.748;13.882;2023-09-30T02:06:48;11.00;99.90
11385;DHT22;5747;56.748;13.882;2023-09-30T02:09:16;10.90;99.90
11385;DHT22;5747;56.748;13.882;2023-09-30T02:11:47;10.90;99.90
11385;DHT22;5747;56.748;13.882;2023-09-30T02:14:15;10.80;99.90
11385;DHT22;5747;56.748;13.882;2023-09-30T02:16:43;10.60;99.90
11385;DHT22;5747;56.748;13.882;2023-09-30T02:19:11;10.60;99.90
11385;DHT22;5747;56.748;13.882;2023-09-30T02:21:40;10.70;99.90
11385;DHT22;5747;56.748;13.882;2023-09-30T02:24:08;10.80;99.90
11385;DHT22;5747;56.748;13.882;2023-09-30T02:26:37;10.80;99.90
11385;DHT22;5747;56.748;13.882;2023-09-30T02:29:07;10.90;99.90
11385;DHT22;5747;56.748;13.882;2023-09-30T02:31:35;10.90;99.90
11385;DHT22;5747;56.748;13.882;2023-09-30T02:34:05;11.00;99.90
11385;DHT22;5747;56.748;13.882;2023-09-30T02:36:33;11.00;99.90
11385;DHT22;5747;56.748;13.882;2023-09-30T02:39:03;11.00;99.90
11385;DHT22;5747;56.748;13.882;2023-09-30T02:41:31;11.10;99.90
11385;DHT22;5747;56.748;13.882;2023-09-30T02:43:59;11.20;99.90
11385;DHT22;5747;56.748;13.882;2023-09-30T02:46:29;11.20;99.90
11385;DHT22;5747;56.748;13.882;2023-09-30T02:48:57;11.30;99.90
11385;DHT22;5747;56.748;13.882;2023-09-30T02:51:25;11.40;99.90
11385;DHT22;5747;56.748;13.882;2023-09-30T02:53:56;11.40;99.90
11385;DHT22;5747;56.748;13.882;2023-09-30T02:56:24;11.40;99.90
11385;DHT22;5747;56.748;13.882;2023-09-30T02:58:53;11.40;99.90
11385;DHT22;5747;56.748;13.882;2023-09-30T03:01:22;11.40;99.90
11385;DHT22;5747;56.748;13.882;2023-09-30T03:03:51;11.40;99.90
11385;DHT22;5747;56.748;13.882;2023-09-30T03:06:20;11.40;99.90
11385;DHT22;5747;56.748;13.882;2023-09-30T03:08:48;11.30;99.90
11385;DHT22;5747;56.748;13.882;2023-09-30T03:11:16;11.20;99.90
11385;DHT22;5747;56.748;13.882;2023-09-30T03:13:49;11.20;99.90
11385;DHT22;5747;56.748;13.882;2023-09-30T03:16:18;11.20;99.90
11385;DHT22;5747;56.748;13.882;2023-09-30T03:18:47;11.10;99.90
11385;DHT22;5747;56.748;13.882;2023-09-30T03:21:17;11.20;99.90
11385;DHT22;5747;56.748;13.882;2023-09-30T03:23:46;11.10;99.90
11385;DHT22;5747;56.748;13.882;2023-09-30T03:26:15;11.20;99.90
11385;DHT22;5747;56.748;13.882;2023-09-30T03:28:43;11.10;99.90
11385;DHT22;5747;56.748;13.882;2023-09-30T03:31:12;11.00;99.90
11385;DHT22;5747;56.748;13.882;2023-09-30T03:33:40;11.00;99.90
11385;DHT22;5747;56.748;13.882;2023-09-30T03:36:08;11.00;99.90
11385;DHT22;5747;56.748;13.882;2023-09-30T03:38:39;11.10;99.90
11385;DHT22;5747;56.748;13.882;2023-09-30T03:41:08;11.10;99.90
11385;DHT22;5747;56.748;13.882;2023-09-30T03:43:40;11.10;99.90
11385;DHT22;5747;56.748;13.882;2023-09-30T03:46:08;11.10;99.90
11385;DHT22;5747;56.748;13.882;2023-09-30T03:48:36;11.10;99.90
11385;DHT22;5747;56.748;13.882;2023-09-30T03:51:09;11.10;99.90
11385;DHT22;5747;56.748;13.882;2023-09-30T03:53:42;11.10;99.90
11385;DHT22;5747;56.748;13.882;2023-09-30T03:56:11;11.20;99.90
11385;DHT22;5747;56.748;13.882;2023-09-30T03:58:40;11.20;99.90
11385;DHT22;5747;56.748;13.882;2023-09-30T04:01:08;11.10;99.90
11385;DHT22;5747;56.748;13.882;2023-09-30T04:03:38;11.00;99.90
11385;DHT22;5747;56.748;13.882;2023-09-30T04:06:08;10.90;99.90
11385;DHT22;5747;56.748;13.882;2023-09-30T04:08:36;10.90;99.90
11385;DHT22;5747;56.748;13.882;2023-09-30T04:11:06;11.00;99.90
11385;DHT22;5747;56.748;13.882;2023-09-30T04:13:34;11.00;99.90
11385;DHT22;5747;56.748;13.882;2023-09-30T04:16:02;11.10;99.90
11385;DHT22;5747;56.748;13.882;2023-09-30T04:18:30;11.10;99.90
11385;DHT22;5747;56.748;13.882;2023-09-30T04:20:59;11.10;99.90
11385;DHT22;5747;56.748;13.882;2023-09-30T04:23:27;11.00;99.90
11385;DHT22;5747;56.748;13.882;2023-09-30T04:25:55;11.20;99.90
11385;DHT22;5747;56.748;13.882;2023-09-30T04:28:24;11.20;99.90
11385;DHT22;5747;56.748;13.882;2023-09-30T04:30:53;11.20;99.90
11385;DHT22;5747;56.748;13.882;2023-09-30T04:33:21;11.20;99.90
11385;DHT22;5747;56.748;13.882;2023-09-30T04:35:52;11.20;99.90
11385;DHT22;5747;56.748;13.882;2023-09-30T04:38:20;11.20;99.90
11385;DHT22;5747;56.748;13.882;2023-09-30T04:40:48;11.20;99.90
11385;DHT22;5747;56.748;13.882;2023-09-30T04:43:18;11.30;99.90
11385;DHT22;5747;56.748;13.882;2023-09-30T04:45:47;11.30;99.90
11385;DHT22;5747;56.748;13.882;2023-09-30T04:48:19;11.30;99.90
11385;DHT22;5747;56.748;13.882;2023-09-30T04:50:49;11.30;99.90
11385;DHT22;5747;56.748;13.882;2023-09-30T04:53:18;11.30;99.90
11385;DHT22;5747;56.748;13.882;2023-09-30T04:55:46;11.30;99.90
11385;DHT22;5747;56.748;13.882;2023-09-30T04:58:16;11.30;99.90
11385;DHT22;5747;56.748;13.882;2023-09-30T05:00:44;11.40;99.90
11385;DHT22;5747;56.748;13.882;2023-09-30T05:03:14;11.40;99.90
11385;DHT22;5747;56.748;13.882;2023-09-30T05:05:42;11.40;99.90
11385;DHT22;5747;56.748;13.882;2023-09-30T05:08:10;11.40;99.90
11385;DHT22;5747;56.748;13.882;2023-09-30T05:10:40;11.40;99.90
11385;DHT22;5747;56.748;13.882;2023-09-30T05:13:09;11.40;99.90
11385;DHT22;5747;56.748;13.882;2023-09-30T05:15:37;11.40;99.90
11385;DHT22;5747;56.748;13.882;2023-09-30T05:18:05;11.40;99.90
11385;DHT22;5747;56.748;13.882;2023-09-30T05:20:36;11.40;99.90
11385;DHT22;5747;56.748;13.882;2023-09-30T05:23:06;11.40;99.90
11385;DHT22;5747;56.748;13.882;2023-09-30T05:25:34;11.40;99.90
11385;DHT22;5747;56.748;13.882;2023-09-30T05:28:03;11.40;99.90
11385;DHT22;5747;56.748;13.882;2023-09-30T05:30:32;11.50;99.90
11385;DHT22;5747;56.748;13.882;2023-09-30T05:33:01;11.60;99.90
11385;DHT22;5747;56.748;13.882;2023-09-30T05:35:30;11.60;99.90
11385;DHT22;5747;56.748;13.882;2023-09-30T05:38:00;11.70;99.90
11385;DHT22;5747;56.748;13.882;2023-09-30T05:40:31;11.70;99.90
11385;DHT22;5747;56.748;13.882;2023-09-30T05:42:59;11.70;99.90
11385;DHT22;5747;56.748;13.882;2023-09-30T05:45:30;11.70;99.90
11385;DHT22;5747;56.748;13.882;2023-09-30T05:48:02;11.80;99.90
11385;DHT22;5747;56.748;13.882;2023-09-30T05:50:33;11.80;99.90
11385;DHT22;5747;56.748;13.882;2023-09-30T05:53:04;11.80;99.90
11385;DHT22;5747;56.748;13.882;2023-09-30T05:55:32;11.80;99.90
11385;DHT22;5747;56.748;13.882;2023-09-30T05:58:01;11.80;99.90
11385;DHT22;5747;56.748;13.882;2023-09-30T06:00:29;11.80;99.90
11385;DHT22;5747;56.748;13.882;2023-09-30T06:02:59;11.70;99.90
11385;DHT22;5747;56.748;13.882;2023-09-30T06:05:27;11.70;99.90
11385;DHT22;5747;56.748;13.882;2023-09-30T06:07:59;11.80;99.90
11385;DHT22;5747;56.748;13.882;2023-09-30T06:10:31;11.90;99.90
11385;DHT22;5747;56.748;13.882;2023-09-30T06:12:59;12.10;99.90
11385;DHT22;5747;56.748;13.882;2023-09-30T06:15:29;12.30;99.90
11385;DHT22;5747;56.748;13.882;2023-09-30T06:17:59;12.30;99.90
11385;DHT22;5747;56.748;13.882;2023-09-30T06:20:27;12.30;99.90
11385;DHT22;5747;56.748;13.882;2023-09-30T06:22:57;12.30;99.90
11385;DHT22;5747;56.748;13.882;2023-09-30T06:25:27;12.30;99.90
11385;DHT22;5747;56.748;13.882;2023-09-30T06:27:58;12.40;99.90
11385;DHT22;5747;56.748;13.882;2023-09-30T06:30:27;12.40;99.90
11385;DHT22;5747;56.748;13.882;2023-09-30T06:32:59;12.50;99.90
11385;DHT22;5747;56.748;13.882;2023-09-30T06:35:28;12.50;99.90
11385;DHT22;5747;56.748;13.882;2023-09-30T06:38:01;12.50;99.90
11385;DHT22;5747;56.748;13.882;2023-09-30T06:40:30;12.60;99.90
11385;DHT22;5747;56.748;13.882;2023-09-30T06:42:59;12.70;99.90
11385;DHT22;5747;56.748;13.882;2023-09-30T06:45:28;12.70;99.90
11385;DHT22;5747;56.748;13.882;2023-09-30T06:47:56;12.70;99.90
11385;DHT22;5747;56.748;13.882;2023-09-30T06:50:25;12.70;99.90
11385;DHT22;5747;56.748;13.882;2023-09-30T06:52:53;12.70;99.90
11385;DHT22;5747;56.748;13.882;2023-09-30T06:55:21;12.60;99.90
11385;DHT22;5747;56.748;13.882;2023-09-30T06:57:49;12.60;99.90
11385;DHT22;5747;56.748;13.882;2023-09-30T07:00:19;12.70;99.90
11385;DHT22;5747;56.748;13.882;2023-09-30T07:02:47;12.80;99.90
11385;DHT22;5747;56.748;13.882;2023-09-30T07:05:16;12.90;99.90
11385;DHT22;5747;56.748;13.882;2023-09-30T07:07:44;13.00;99.90
11385;DHT22;5747;56.748;13.882;2023-09-30T07:10:13;13.00;99.90
11385;DHT22;5747;56.748;13.882;2023-09-30T07:12:41;13.20;99.90
11385;DHT22;5747;56.748;13.882;2023-09-30T07:15:10;13.10;99.90
11385;DHT22;5747;56.748;13.882;2023-09-30T07:17:40;13.20;99.90
11385;DHT22;5747;56.748;13.882;2023-09-30T07:20:11;13.20;99.90
11385;DHT22;5747;56.748;13.882;2023-09-30T07:22:40;13.30;99.90
11385;DHT22;5747;56.748;13.882;2023-09-30T07:25:25;13.20;99.90
11385;DHT22;5747;56.748;13.882;2023-09-30T07:27:53;13.30;99.90
11385;DHT22;5747;56.748;13.882;2023-09-30T07:30:21;13.40;99.90
11385;DHT22;5747;56.748;13.882;2023-09-30T07:32:51;13.30;99.90
11385;DHT22;5747;56.748;13.882;2023-09-30T07:35:19;13.20;99.90
11385;DHT22;5747;56.748;13.882;2023-09-30T07:37:47;13.30;99.90
11385;DHT22;5747;56.748;13.882;2023-09-30T07:40:18;13.40;99.90
11385;DHT22;5747;56.748;13.882;2023-09-30T07:42:48;13.10;99.90
11385;DHT22;5747;56.748;13.882;2023-09-30T07:45:17;12.90;99.90
11385;DHT22;5747;56.748;13.882;2023-09-30T07:47:47;12.80;99.90
11385;DHT22;5747;56.748;13.882;2023-09-30T07:50:17;12.90;99.90
11385;DHT22;5747;56.748;13.882;2023-09-30T07:52:46;13.00;99.90
11385;DHT22;5747;56.748;13.882;2023-09-30T07:55:14;13.20;99.90
11385;DHT22;5747;56.748;13.882;2023-09-30T07:57:44;13.30;99.90
11385;DHT22;5747;56.748;13.882;2023-09-30T08:00:14;13.50;99.90
11385;DHT22;5747;56.748;13.882;2023-09-30T08:02:43;13.50;99.90
11385;DHT22;5747;56.748;13.882;2023-09-30T08:05:12;13.50;99.90
11385;DHT22;5747;56.748;13.882;2023-09-30T08:07:42;13.40;99.90
11385;DHT22;5747;56.748;13.882;2023-09-30T08:10:10;13.30;99.90
11385;DHT22;5747;56.748;13.882;2023-09-30T08:12:41;13.20;99.90
11385;DHT22;5747;56.748;13.882;2023-09-30T08:15:13;13.20;99.90
11385;DHT22;5747;56.748;13.882;2023-09-30T08:17:41;13.20;99.90
11385;DHT22;5747;56.748;13.882;2023-09-30T08:20:10;13.30;99.90
11385;DHT22;5747;56.748;13.882;2023-09-30T08:22:39;13.50;99.90
11385;DHT22;5747;56.748;13.882;2023-09-30T08:25:09;13.50;99.90
11385;DHT22;5747;56.748;13.882;2023-09-30T08:27:38;13.60;99.90
11385;DHT22;5747;56.748;13.882;2023-09-30T08:30:07;13.80;99.90
11385;DHT22;5747;56.748;13.882;2023-09-30T08:32:37;13.80;99.90
11385;DHT22;5747;56.748;13.882;2023-09-30T08:35:06;14.00;99.90
11385;DHT22;5747;56.748;13.882;2023-09-30T08:37:36;14.10;99.90
11385;DHT22;5747;56.748;13.882;2023-09-30T08:40:05;14.00;99.90
11385;DHT22;5747;56.748;13.882;2023-09-30T08:42:38;14.00;99.90
11385;DHT22;5747;56.748;13.882;2023-09-30T08:45:10;13.80;99.90
11385;DHT22;5747;56.748;13.882;2023-09-30T08:47:41;13.70;99.90
11385;DHT22;5747;56.748;13.882;2023-09-30T08:50:10;13.70;99.90
11385;DHT22;5747;56.748;13.882;2023-09-30T08:52:41;13.50;99.90
11385;DHT22;5747;56.748;13.882;2023-09-30T08:55:11;13.20;99.90
11385;DHT22;5747;56.748;13.882;2023-09-30T08:57:42;13.10;99.90
11385;DHT22;5747;56.748;13.882;2023-09-30T09:00:11;13.00;99.90
11385;DHT22;5747;56.748;13.882;2023-09-30T09:02:41;13.10;99.90
11385;DHT22;5747;56.748;13.882;2023-09-30T09:05:10;13.20;99.90
11385;DHT22;5747;56.748;13.882;2023-09-30T09:07:39;13.30;99.90
11385;DHT22;5747;56.748;13.882;2023-09-30T09:10:10;13.40;99.90
11385;DHT22;5747;56.748;13.882;2023-09-30T09:12:42;13.50;99.90
11385;DHT22;5747;56.748;13.882;2023-09-30T09:15:21;13.60;99.90
11385;DHT22;5747;56.748;13.882;2023-09-30T09:17:49;13.60;99.90
11385;DHT22;5747;56.748;13.882;2023-09-30T09:20:21;13.80;99.90
11385;DHT22;5747;56.748;13.882;2023-09-30T09:22:50;13.70;99.90
11385;DHT22;5747;56.748;13.882;2023-09-30T09:25:21;13.70;99.90
11385;DHT22;5747;56.748;13.882;2023-09-30T09:27:52;13.70;99.90
11385;DHT22;5747;56.748;13.882;2023-09-30T09:30:24;13.80;99.90
11385;DHT22;5747;56.748;13.882;2023-09-30T09:32:58;13.70;99.90
11385;DHT22;5747;56.748;13.882;2023-09-30T09:35:27;13.70;99.90
11385;DHT22;5747;56.748;13.882;2023-09-30T09:37:59;13.70;99.90
11385;DHT22;5747;56.748;13.882;2023-09-30T09:40:29;13.70;99.90
11385;DHT22;5747;56.748;13.882;2023-09-30T09:43:00;13.70;99.90
11385;DHT22;5747;56.748;13.882;2023-09-30T09:45:34;13.70;99.90
11385;DHT22;5747;56.748;13.882;2023-09-30T09:48:03;13.90;99.90
11385;DHT22;5747;56.748;13.882;2023-09-30T09:50:33;13.90;99.90
11385;DHT22;5747;56.748;13.882;2023-09-30T09:53:04;14.00;99.90
11385;DHT22;5747;56.748;13.882;2023-09-30T09:55:33;14.20;99.90
11385;DHT22;5747;56.748;13.882;2023-09-30T09:58:03;14.30;99.90
11385;DHT22;5747;56.748;13.882;2023-09-30T10:00:32;14.50;99.90
11385;DHT22;5747;56.748;13.882;2023-09-30T10:03:02;14.30;99.90
11385;DHT22;5747;56.748;13.882;2023-09-30T10:05:31;14.30;99.90
11385;DHT22;5747;56.748;13.882;2023-09-30T10:08:02;14.60;99.90
11385;DHT22;5747;56.748;13.882;2023-09-30T10:10:35;14.90;99.90
11385;DHT22;5747;56.748;13.882;2023-09-30T10:13:05;14.80;99.90
11385;DHT22;5747;56.748;13.882;2023-09-30T10:15:40;14.40;99.90
11385;DHT22;5747;56.748;13.882;2023-09-30T10:18:09;14.30;99.90
11385;DHT22;5747;56.748;13.882;2023-09-30T10:20:43;14.40;99.90
11385;DHT22;5747;56.748;13.882;2023-09-30T10:23:21;14.20;99.90
11385;DHT22;5747;56.748;13.882;2023-09-30T10:25:51;14.20;99.90
11385;DHT22;5747;56.748;13.882;2023-09-30T10:28:37;14.10;99.90
11385;DHT22;5747;56.748;13.882;2023-09-30T10:31:09;14.20;99.90
11385;DHT22;5747;56.748;13.882;2023-09-30T10:36:46;14.20;99.90
11385;DHT22;5747;56.748;13.882;2023-09-30T10:39:14;14.00;99.90
11385;DHT22;5747;56.748;13.882;2023-09-30T10:41:51;14.00;99.90
11385;DHT22;5747;56.748;13.882;2023-09-30T10:44:34;14.00;99.90
11385;DHT22;5747;56.748;13.882;2023-09-30T10:50:49;14.30;99.90
11385;DHT22;5747;56.748;13.882;2023-09-30T10:53:18;14.40;99.90
11385;DHT22;5747;56.748;13.882;2023-09-30T10:55:46;14.20;99.90
11385;DHT22;5747;56.748;13.882;2023-09-30T10:58:14;14.30;99.90
11385;DHT22;5747;56.748;13.882;2023-09-30T11:00:53;14.50;99.90
11385;DHT22;5747;56.748;13.882;2023-09-30T11:03:22;14.60;99.90
11385;DHT22;5747;56.748;13.882;2023-09-30T11:05:51;14.60;99.90
11385;DHT22;5747;56.748;13.882;2023-09-30T11:08:38;14.60;99.90
11385;DHT22;5747;56.748;13.882;2023-09-30T11:11:08;14.60;99.90
11385;DHT22;5747;56.748;13.882;2023-09-30T11:13:36;14.70;99.90
11385;DHT22;5747;56.748;13.882;2023-09-30T11:16:07;14.60;99.90
11385;DHT22;5747;56.748;13.882;2023-09-30T11:18:35;14.70;99.90
11385;DHT22;5747;56.748;13.882;2023-09-30T11:21:07;14.80;99.90
11385;DHT22;5747;56.748;13.882;2023-09-30T11:23:36;14.80;99.90
11385;DHT22;5747;56.748;13.882;2023-09-30T11:26:05;14.50;99.90
11385;DHT22;5747;56.748;13.882;2023-09-30T11:28:38;14.60;99.90
11385;DHT22;5747;56.748;13.882;2023-09-30T11:31:12;14.70;99.90
11385;DHT22;5747;56.748;13.882;2023-09-30T11:33:48;14.70;99.90
11385;DHT22;5747;56.748;13.882;2023-09-30T11:36:18;14.40;99.90
11385;DHT22;5747;56.748;13.882;2023-09-30T11:38:48;14.30;99.90
11385;DHT22;5747;56.748;13.882;2023-09-30T11:41:17;14.50;99.90
11385;DHT22;5747;56.748;13.882;2023-09-30T11:43:59;14.60;99.90
11385;DHT22;5747;56.748;13.882;2023-09-30T11:46:49;14.60;99.90
11385;DHT22;5747;56.748;13.882;2023-09-30T11:49:28;14.60;99.90
11385;DHT22;5747;56.748;13.882;2023-09-30T11:51:58;14.40;99.90
11385;DHT22;5747;56.748;13.882;2023-09-30T11:54:34;14.40;99.90
11385;DHT22;5747;56.748;13.882;2023-09-30T11:57:04;14.40;99.90
11385;DHT22;5747;56.748;13.882;2023-09-30T11:59:32;14.50;99.90
11385;DHT22;5747;56.748;13.882;2023-09-30T12:02:02;14.60;99.90
11385;DHT22;5747;56.748;13.882;2023-09-30T12:04:41;14.70;99.90
11385;DHT22;5747;56.748;13.882;2023-09-30T12:07:11;14.60;99.90
11385;DHT22;5747;56.748;13.882;2023-09-30T12:09:40;14.50;99.90
11385;DHT22;5747;56.748;13.882;2023-09-30T12:12:08;14.40;99.90
11385;DHT22;5747;56.748;13.882;2023-09-30T12:14:37;14.30;99.90
11385;DHT22;5747;56.748;13.882;2023-09-30T12:17:07;14.20;99.90
11385;DHT22;5747;56.748;13.882;2023-09-30T12:19:39;14.30;99.90
11385;DHT22;5747;56.748;13.882;2023-09-30T12:22:09;14.20;99.90
11385;DHT22;5747;56.748;13.882;2023-09-30T12:24:38;14.30;99.90
11385;DHT22;5747;56.748;13.882;2023-09-30T12:27:07;14.30;99.90
11385;DHT22;5747;56.748;13.882;2023-09-30T12:29:35;14.40;99.90
11385;DHT22;5747;56.748;13.882;2023-09-30T12:32:07;14.40;99.90
11385;DHT22;5747;56.748;13.882;2023-09-30T12:34:35;14.50;99.90
11385;DHT22;5747;56.748;13.882;2023-09-30T12:37:03;14.60;99.90
11385;DHT22;5747;56.748;13.882;2023-09-30T12:39:31;14.70;99.90
11385;DHT22;5747;56.748;13.882;2023-09-30T12:42:00;14.50;99.90
11385;DHT22;5747;56.748;13.882;2023-09-30T12:44:31;14.50;99.90
11385;DHT22;5747;56.748;13.882;2023-09-30T12:47:01;14.70;99.90
11385;DHT22;5747;56.748;13.882;2023-09-30T12:49:31;14.80;99.90
11385;DHT22;5747;56.748;13.882;2023-09-30T12:51:59;15.00;99.90
11385;DHT22;5747;56.748;13.882;2023-09-30T12:54:28;14.70;99.90
11385;DHT22;5747;56.748;13.882;2023-09-30T12:56:56;14.50;99.90
11385;DHT22;5747;56.748;13.882;2023-09-30T12:59:25;14.50;99.90
11385;DHT22;5747;56.748;13.882;2023-09-30T13:01:53;14.50;99.90
11385;DHT22;5747;56.748;13.882;2023-09-30T13:04:21;14.50;99.90
11385;DHT22;5747;56.748;13.882;2023-09-30T13:06:52;14.40;99.90
11385;DHT22;5747;56.748;13.882;2023-09-30T13:09:20;14.50;99.90
11385;DHT22;5747;56.748;13.882;2023-09-30T13:11:49;14.40;99.90
11385;DHT22;5747;56.748;13.882;2023-09-30T13:14:17;14.40;99.90
11385;DHT22;5747;56.748;13.882;2023-09-30T13:16:45;14.30;99.90
11385;DHT22;5747;56.748;13.882;2023-09-30T13:19:13;14.30;99.90
11385;DHT22;5747;56.748;13.882;2023-09-30T13:21:43;14.20;99.90
11385;DHT22;5747;56.748;13.882;2023-09-30T13:24:12;14.10;99.90
11385;DHT22;5747;56.748;13.882;2023-09-30T13:26:41;14.10;99.90
11385;DHT22;5747;56.748;13.882;2023-09-30T13:29:09;13.90;99.90
11385;DHT22;5747;56.748;13.882;2023-09-30T13:31:38;13.90;99.90
11385;DHT22;5747;56.748;13.882;2023-09-30T13:34:07;13.90;99.90
11385;DHT22;5747;56.748;13.882;2023-09-30T13:36:35;13.90;99.90
11385;DHT22;5747;56.748;13.882;2023-09-30T13:39:03;14.00;99.90
11385;DHT22;5747;56.748;13.882;2023-09-30T13:41:35;14.00;99.90
11385;DHT22;5747;56.748;13.882;2023-09-30T13:44:04;13.70;99.90
11385;DHT22;5747;56.748;13.882;2023-09-30T13:46:32;13.50;99.90
11385;DHT22;5747;56.748;13.882;2023-09-30T13:49:01;13.40;99.90
11385;DHT22;5747;56.748;13.882;2023-09-30T13:51:29;13.50;99.90
11385;DHT22;5747;56.748;13.882;2023-09-30T13:53:57;13.50;99.90
11385;DHT22;5747;56.748;13.882;2023-09-30T13:56:25;13.60;99.90
11385;DHT22;5747;56.748;13.882;2023-09-30T13:58:55;13.80;99.90
11385;DHT22;5747;56.748;13.882;2023-09-30T14:01:25;13.80;99.90
11385;DHT22;5747;56.748;13.882;2023-09-30T14:03:55;13.90;99.90
11385;DHT22;5747;56.748;13.882;2023-09-30T14:06:24;13.80;99.90
11385;DHT22;5747;56.748;13.882;2023-09-30T14:08:52;13.80;99.90
11385;DHT22;5747;56.748;13.882;2023-09-30T14:11:20;13.90;99.90
11385;DHT22;5747;56.748;13.882;2023-09-30T14:13:49;13.90;99.90
11385;DHT22;5747;56.748;13.882;2023-09-30T14:16:18;13.80;99.90
11385;DHT22;5747;56.748;13.882;2023-09-30T14:18:46;13.70;99.90
11385;DHT22;5747;56.748;13.882;2023-09-30T14:21:16;13.70;99.90
11385;DHT22;5747;56.748;13.882;2023-09-30T14:23:45;13.70;99.90
11385;DHT22;5747;56.748;13.882;2023-09-30T14:26:13;13.70;99.90
11385;DHT22;5747;56.748;13.882;2023-09-30T14:28:41;13.60;99.90
11385;DHT22;5747;56.748;13.882;2023-09-30T14:31:09;13.60;99.90
11385;DHT22;5747;56.748;13.882;2023-09-30T14:33:39;13.40;99.90
11385;DHT22;5747;56.748;13.882;2023-09-30T14:36:07;13.20;99.90
11385;DHT22;5747;56.748;13.882;2023-09-30T14:38:36;13.10;99.90
11385;DHT22;5747;56.748;13.882;2023-09-30T14:41:06;13.00;99.90
11385;DHT22;5747;56.748;13.882;2023-09-30T14:43:35;13.00;99.90
11385;DHT22;5747;56.748;13.882;2023-09-30T14:46:03;13.00;99.90
11385;DHT22;5747;56.748;13.882;2023-09-30T14:48:32;13.00;99.90
11385;DHT22;5747;56.748;13.882;2023-09-30T14:51:01;13.00;99.90
11385;DHT22;5747;56.748;13.882;2023-09-30T14:53:32;13.20;99.90
11385;DHT22;5747;56.748;13.882;2023-09-30T14:56:00;13.20;99.90
11385;DHT22;5747;56.748;13.882;2023-09-30T14:58:28;13.30;99.90
11385;DHT22;5747;56.748;13.882;2023-09-30T15:00:56;13.40;99.90
11385;DHT22;5747;56.748;13.882;2023-09-30T15:03:25;13.50;99.90
11385;DHT22;5747;56.748;13.882;2023-09-30T15:05:58;13.50;99.90
11385;DHT22;5747;56.748;13.882;2023-09-30T15:08:30;13.60;99.90
11385;DHT22;5747;56.748;13.882;2023-09-30T15:10:59;13.60;99.90
11385;DHT22;5747;56.748;13.882;2023-09-30T15:13:28;13.50;99.90
11385;DHT22;5747;56.748;13.882;2023-09-30T15:15:56;13.50;99.90
11385;DHT22;5747;56.748;13.882;2023-09-30T15:18:24;13.50;99.90
11385;DHT22;5747;56.748;13.882;2023-09-30T15:20:53;13.50;99.90
11385;DHT22;5747;56.748;13.882;2023-09-30T15:23:21;13.40;99.90
11385;DHT22;5747;56.748;13.882;2023-09-30T15:25:51;13.40;99.90
11385;DHT22;5747;56.748;13.882;2023-09-30T15:28:19;13.40;99.90
11385;DHT22;5747;56.748;13.882;2023-09-30T15:30:50;13.40;99.90
11385;DHT22;5747;56.748;13.882;2023-09-30T15:33:18;13.40;99.90
11385;DHT22;5747;56.748;13.882;2023-09-30T15:35:47;13.30;99.90
11385;DHT22;5747;56.748;13.882;2023-09-30T15:38:15;13.30;99.90
11385;DHT22;5747;56.748;13.882;2023-09-30T15:40:52;13.30;99.90
11385;DHT22;5747;56.748;13.882;2023-09-30T15:43:21;13.30;99.90
11385;DHT22;5747;56.748;13.882;2023-09-30T15:45:50;13.20;99.90
11385;DHT22;5747;56.748;13.882;2023-09-30T15:48:18;13.10;99.90
11385;DHT22;5747;56.748;13.882;2023-09-30T15:50:47;13.10;99.90
11385;DHT22;5747;56.748;13.882;2023-09-30T15:53:15;13.00;99.90